createdAt,value
2022-08-25T00:00:14.313Z,0.88
2022-08-25T00:02:48.501Z,1.15
2022-08-25T00:05:28.525Z,1.00
2022-08-25T00:07:57.429Z,1.23
2022-08-25T00:10:25.434Z,0.90
2022-08-25T00:12:53.143Z,1.13
2022-08-25T00:15:22.856Z,0.80
2022-08-25T00:17:50.581Z,1.10
2022-08-25T00:20:18.296Z,1.20
2022-08-25T00:22:47.410Z,1.13
2022-08-25T00:25:15.105Z,1.25
2022-08-25T00:27:43.706Z,1.40
2022-08-25T00:30:15.865Z,1.20
2022-08-25T00:32:43.757Z,1.50
2022-08-25T00:35:20.218Z,1.10
2022-08-25T00:37:49.244Z,1.25
2022-08-25T00:40:17.217Z,1.15
2022-08-25T00:42:44.941Z,1.30
2022-08-25T00:45:12.675Z,1.40
2022-08-25T00:47:41.386Z,1.27
2022-08-25T00:50:10.802Z,1.23
2022-08-25T00:52:40.106Z,1.20
2022-08-25T00:55:13.110Z,1.08
2022-08-25T00:57:44.598Z,1.30
2022-08-25T01:00:16.500Z,1.30
2022-08-25T01:02:45.085Z,1.30
2022-08-25T01:05:13.664Z,1.25
2022-08-25T01:07:42.453Z,1.10
2022-08-25T01:10:14.453Z,1.45
2022-08-25T01:12:42.684Z,1.17
2022-08-25T01:15:12.562Z,1.10
2022-08-25T01:17:47.453Z,1.30
2022-08-25T01:20:15.472Z,1.15
2022-08-25T01:22:44.854Z,1.00
2022-08-25T01:25:38.298Z,1.55
2022-08-25T01:28:06.731Z,1.40
2022-08-25T01:30:35.017Z,1.30
2022-08-25T01:33:04.659Z,1.30
2022-08-25T01:35:32.873Z,1.10
2022-08-25T01:38:02.055Z,1.17
2022-08-25T01:40:29.895Z,1.40
2022-08-25T01:43:03.683Z,1.40
2022-08-25T01:45:31.394Z,1.25
2022-08-25T01:47:59.143Z,1.23
2022-08-25T01:50:26.935Z,1.27
2022-08-25T01:52:57.328Z,1.20
2022-08-25T01:55:27.034Z,1.20
2022-08-25T01:57:54.782Z,1.33
2022-08-25T02:00:23.529Z,1.40
2022-08-25T02:02:52.183Z,1.73
2022-08-25T02:05:23.708Z,1.23
2022-08-25T02:07:52.054Z,1.30
2022-08-25T02:10:19.778Z,1.50
2022-08-25T02:12:50.343Z,1.30
2022-08-25T02:15:18.031Z,1.20
2022-08-25T02:17:45.767Z,1.42
2022-08-25T02:20:13.530Z,1.38
2022-08-25T02:22:41.226Z,1.17
2022-08-25T02:25:17.075Z,1.38
2022-08-25T02:27:45.586Z,1.38
2022-08-25T02:30:15.971Z,1.30
2022-08-25T02:32:43.759Z,1.10
2022-08-25T02:35:12.073Z,1.00
2022-08-25T02:37:39.720Z,1.30
2022-08-25T02:40:08.842Z,1.40
2022-08-25T02:42:36.669Z,1.33
2022-08-25T02:45:05.007Z,1.30
2022-08-25T02:47:34.059Z,1.20
2022-08-25T02:50:01.705Z,1.52
2022-08-25T02:52:29.385Z,1.05
2022-08-25T02:54:57.187Z,1.38
2022-08-25T02:57:24.921Z,1.20
2022-08-25T02:59:52.923Z,1.17
2022-08-25T03:02:20.660Z,1.20
2022-08-25T03:04:50.443Z,1.30
2022-08-25T03:07:18.455Z,1.50
2022-08-25T03:09:49.612Z,1.33
2022-08-25T03:12:17.323Z,1.30
2022-08-25T03:14:45.531Z,1.60
2022-08-25T03:17:14.369Z,1.40
2022-08-25T03:19:42.120Z,1.70
2022-08-25T03:22:11.210Z,1.35
2022-08-25T03:24:38.886Z,1.48
2022-08-25T03:27:05.895Z,1.33
2022-08-25T03:29:34.449Z,1.60
2022-08-25T03:32:02.505Z,1.35
2022-08-25T03:34:31.320Z,1.40
2022-08-25T03:36:59.352Z,1.80
2022-08-25T03:39:29.028Z,1.67
2022-08-25T03:41:56.756Z,1.40
2022-08-25T03:44:24.434Z,1.75
2022-08-25T03:46:53.252Z,1.20
2022-08-25T03:49:23.880Z,1.52
2022-08-25T03:51:53.148Z,1.35
2022-08-25T03:54:22.941Z,1.25
2022-08-25T03:56:52.162Z,1.70
2022-08-25T03:59:20.071Z,1.48
2022-08-25T04:01:54.037Z,1.50
2022-08-25T04:04:22.760Z,1.30
2022-08-25T04:06:50.826Z,1.60
2022-08-25T04:09:18.522Z,1.52
2022-08-25T04:11:46.511Z,1.58
2022-08-25T04:14:18.506Z,1.40
2022-08-25T04:16:46.480Z,1.50
2022-08-25T04:19:14.724Z,1.37
2022-08-25T04:21:43.000Z,1.60
2022-08-25T04:24:12.699Z,1.42
2022-08-25T04:26:42.719Z,1.70
2022-08-25T04:29:11.347Z,1.60
2022-08-25T04:31:42.882Z,1.57
2022-08-25T04:34:14.794Z,1.80
2022-08-25T04:36:59.025Z,1.60
2022-08-25T04:39:26.709Z,1.50
2022-08-25T04:41:54.333Z,1.90
2022-08-25T04:44:21.960Z,1.80
2022-08-25T04:46:51.082Z,1.70
2022-08-25T04:49:18.787Z,2.00
2022-08-25T04:51:46.917Z,1.63
2022-08-25T04:54:17.043Z,1.65
2022-08-25T04:56:45.020Z,2.08
2022-08-25T04:59:14.741Z,1.80
2022-08-25T05:01:42.718Z,1.80
2022-08-25T05:04:14.665Z,1.25
2022-08-25T05:06:55.703Z,1.50
2022-08-25T05:09:23.379Z,1.50
2022-08-25T05:11:52.858Z,1.60
2022-08-25T05:14:25.741Z,1.60
2022-08-25T05:16:54.525Z,1.60
2022-08-25T05:19:24.553Z,1.77
2022-08-25T05:21:52.620Z,1.85
2022-08-25T05:24:20.700Z,1.80
2022-08-25T05:26:48.482Z,1.70
2022-08-25T05:29:16.431Z,1.80
2022-08-25T05:31:50.102Z,1.63
2022-08-25T05:34:19.470Z,1.60
2022-08-25T05:36:49.088Z,1.50
2022-08-25T05:39:16.907Z,1.73
2022-08-25T05:41:44.943Z,1.88
2022-08-25T05:44:15.894Z,1.98
2022-08-25T05:46:45.617Z,1.87
2022-08-25T05:49:13.261Z,1.77
2022-08-25T05:51:40.901Z,1.77
2022-08-25T05:54:09.942Z,1.92
2022-08-25T05:56:37.629Z,2.05
2022-08-25T05:59:09.273Z,1.70
2022-08-25T06:01:55.050Z,1.75
2022-08-25T06:04:23.053Z,2.10
2022-08-25T06:06:53.860Z,2.00
2022-08-25T06:09:23.081Z,1.92
2022-08-25T06:11:54.754Z,1.88
2022-08-25T06:14:23.184Z,2.37
2022-08-25T06:16:51.551Z,1.90
2022-08-25T06:19:19.565Z,2.17
2022-08-25T06:21:47.377Z,1.77
2022-08-25T06:24:15.804Z,1.70
2022-08-25T06:26:45.096Z,1.70
2022-08-25T06:29:14.047Z,2.33
2022-08-25T06:31:42.489Z,1.90
2022-08-25T06:34:10.375Z,1.80
2022-08-25T06:36:38.047Z,2.10
2022-08-25T06:39:05.766Z,2.00
2022-08-25T06:41:36.608Z,1.93
2022-08-25T06:44:06.847Z,1.90
2022-08-25T06:46:36.243Z,1.92
2022-08-25T06:49:05.466Z,2.38
2022-08-25T06:51:35.957Z,1.70
2022-08-25T06:54:04.652Z,2.28
2022-08-25T06:56:32.396Z,1.90
2022-08-25T06:59:01.692Z,2.10
2022-08-25T07:01:31.943Z,1.98
2022-08-25T07:04:02.274Z,1.88
2022-08-25T07:06:32.579Z,2.22
2022-08-25T07:09:00.708Z,1.83
2022-08-25T07:11:29.316Z,2.30
2022-08-25T07:13:57.035Z,2.15
2022-08-25T07:16:29.637Z,2.20
2022-08-25T07:19:00.489Z,2.10
2022-08-25T07:21:33.131Z,2.15
2022-08-25T07:24:03.532Z,2.00
2022-08-25T07:26:37.695Z,2.00
2022-08-25T07:29:09.415Z,2.13
2022-08-25T07:31:37.562Z,2.03
2022-08-25T07:34:25.511Z,2.00
2022-08-25T07:36:53.507Z,1.90
2022-08-25T07:39:22.029Z,2.30
2022-08-25T07:41:51.891Z,2.35
2022-08-25T07:44:20.876Z,2.08
2022-08-25T07:46:50.304Z,2.00
2022-08-25T07:49:23.112Z,1.85
2022-08-25T07:52:04.995Z,2.28
2022-08-25T07:54:35.099Z,2.20
2022-08-25T07:57:03.387Z,2.08
2022-08-25T07:59:31.081Z,2.10
2022-08-25T08:02:08.491Z,1.95
2022-08-25T08:04:38.844Z,2.25
2022-08-25T08:07:12.209Z,2.30
2022-08-25T08:09:40.014Z,1.83
2022-08-25T08:12:09.072Z,2.20
2022-08-25T08:14:36.677Z,2.28
2022-08-25T08:17:13.619Z,2.20
2022-08-25T08:19:45.359Z,1.98
2022-08-25T08:22:15.704Z,2.00
2022-08-25T08:24:54.415Z,1.88
2022-08-25T08:27:24.339Z,1.77
2022-08-25T08:29:52.207Z,2.30
2022-08-25T08:32:20.021Z,1.90
2022-08-25T08:34:54.352Z,1.85
2022-08-25T08:37:22.952Z,1.90
2022-08-25T08:39:52.555Z,2.28
2022-08-25T08:42:36.770Z,2.35
2022-08-25T08:45:28.476Z,1.70
2022-08-25T08:48:16.529Z,2.03
2022-08-25T08:51:00.345Z,2.28
2022-08-25T08:53:34.294Z,2.17
2022-08-25T08:56:05.800Z,2.17
2022-08-25T08:58:39.484Z,1.90
2022-08-25T09:01:10.081Z,2.25
2022-08-25T09:03:40.782Z,1.98
2022-08-25T09:06:13.619Z,1.90
2022-08-25T09:08:44.798Z,1.92
2022-08-25T09:11:19.469Z,1.85
2022-08-25T09:14:01.899Z,1.77
2022-08-25T09:16:56.173Z,1.85
2022-08-25T09:19:34.769Z,1.92
2022-08-25T09:22:33.477Z,1.95
2022-08-25T09:25:08.658Z,2.10
2022-08-25T09:27:41.986Z,2.23
2022-08-25T09:30:11.922Z,2.30
2022-08-25T09:32:42.519Z,1.87
2022-08-25T09:35:21.008Z,1.98
2022-08-25T09:38:01.531Z,2.17
2022-08-25T09:40:31.465Z,2.00
2022-08-25T09:43:01.660Z,2.13
2022-08-25T09:45:42.759Z,1.80
2022-08-25T09:48:25.971Z,2.07
2022-08-25T09:50:55.693Z,2.38
2022-08-25T09:53:24.856Z,2.15
2022-08-25T09:56:00.161Z,1.80
2022-08-25T09:58:28.627Z,2.20
2022-08-25T10:01:14.434Z,2.30
2022-08-25T10:04:00.659Z,1.70
2022-08-25T10:06:30.360Z,1.38
2022-08-25T10:09:02.933Z,1.88
2022-08-25T10:11:41.568Z,1.85
2022-08-25T10:14:18.725Z,1.50
2022-08-25T10:16:47.867Z,1.63
2022-08-25T10:19:25.088Z,1.90
2022-08-25T10:22:05.898Z,1.73
2022-08-25T10:24:35.101Z,1.50
2022-08-25T10:27:10.420Z,1.60
2022-08-25T10:30:04.497Z,1.63
2022-08-25T10:32:47.609Z,1.80
2022-08-25T10:35:19.580Z,1.80
2022-08-25T10:37:58.298Z,2.07
2022-08-25T10:40:32.669Z,1.60
2022-08-25T10:43:07.873Z,1.50
2022-08-25T10:45:44.998Z,2.00
2022-08-25T10:48:26.097Z,1.90
2022-08-25T10:50:56.884Z,2.15
2022-08-25T10:53:29.447Z,1.73
2022-08-25T10:56:07.385Z,1.60
2022-08-25T10:59:01.441Z,1.60
2022-08-25T11:01:44.081Z,1.92
2022-08-25T11:04:15.611Z,2.15
2022-08-25T11:06:50.259Z,1.80
2022-08-25T11:09:24.185Z,1.77
2022-08-25T11:11:55.059Z,1.73
2022-08-25T11:14:25.854Z,1.70
2022-08-25T11:16:58.890Z,1.60
2022-08-25T11:19:32.743Z,1.35
2022-08-25T11:22:06.051Z,1.55
2022-08-25T11:24:42.313Z,1.38
2022-08-25T11:27:17.753Z,1.40
2022-08-25T11:29:57.519Z,1.67
2022-08-25T11:32:25.510Z,1.33
2022-08-25T11:34:54.073Z,1.48
2022-08-25T11:37:25.615Z,1.40
2022-08-25T11:40:17.266Z,1.25
2022-08-25T11:43:15.685Z,1.10
2022-08-25T11:46:07.780Z,1.10
2022-08-25T11:48:42.450Z,1.45
2022-08-25T11:51:11.524Z,1.08
2022-08-25T11:53:41.765Z,1.02
2022-08-25T11:56:12.825Z,1.60
2022-08-25T11:58:49.705Z,1.58
2022-08-25T12:02:09.976Z,1.50
2022-08-25T12:04:45.141Z,1.55
2022-08-25T12:07:26.133Z,1.45
2022-08-25T12:10:10.026Z,1.45
2022-08-25T12:12:39.723Z,1.38
2022-08-25T12:15:21.945Z,1.65
2022-08-25T12:18:11.399Z,1.45
2022-08-25T12:21:13.005Z,1.40
2022-08-25T12:23:44.876Z,1.58
2022-08-25T12:26:20.344Z,1.40
2022-08-25T12:28:54.649Z,1.50
2022-08-25T12:31:31.611Z,1.67
2022-08-25T12:34:10.562Z,1.48
2022-08-25T12:36:40.317Z,1.10
2022-08-25T12:39:19.792Z,1.23
2022-08-25T12:41:59.672Z,1.00
2022-08-25T12:44:43.989Z,0.95
2022-08-25T12:47:31.716Z,1.17
2022-08-25T12:50:28.970Z,1.23
2022-08-25T12:53:01.940Z,0.93
2022-08-25T12:55:29.946Z,1.20
2022-08-25T12:58:00.852Z,1.00
2022-08-25T13:00:30.353Z,1.20
2022-08-25T13:03:26.999Z,1.10
2022-08-25T13:06:11.342Z,1.00
2022-08-25T13:08:56.302Z,1.00
2022-08-25T13:11:28.292Z,1.30
2022-08-25T13:14:05.390Z,1.02
2022-08-25T13:16:33.822Z,1.02
2022-08-25T13:19:06.871Z,0.88
2022-08-25T13:21:38.922Z,1.07
2022-08-25T13:24:08.522Z,1.05
2022-08-25T13:26:48.226Z,0.82
2022-08-25T13:29:20.876Z,1.00
2022-08-25T13:31:54.912Z,1.05
2022-08-25T13:34:34.458Z,0.70
2022-08-25T13:37:24.879Z,1.00
2022-08-25T13:39:56.506Z,0.80
2022-08-25T13:42:27.444Z,0.70
2022-08-25T13:44:56.945Z,1.08
2022-08-25T13:47:34.241Z,0.90
2022-08-25T13:50:22.789Z,0.73
2022-08-25T13:52:55.924Z,0.80
2022-08-25T13:55:27.784Z,0.90
2022-08-25T13:57:57.873Z,0.70
2022-08-25T14:00:32.665Z,0.88
2022-08-25T14:03:01.171Z,0.65
2022-08-25T14:05:38.421Z,0.68
2022-08-25T14:08:23.602Z,0.90
2022-08-25T14:11:03.797Z,0.65
2022-08-25T14:13:33.499Z,1.15
2022-08-25T14:16:11.104Z,0.90
2022-08-25T14:18:39.444Z,0.98
2022-08-25T14:21:12.022Z,0.88
2022-08-25T14:23:40.298Z,0.77
2022-08-25T14:26:07.950Z,0.70
2022-08-25T14:28:35.651Z,0.55
2022-08-25T14:31:08.242Z,0.60
2022-08-25T14:33:38.863Z,0.63
2022-08-25T14:36:08.221Z,0.60
2022-08-25T14:38:38.938Z,0.40
2022-08-25T14:43:41.491Z,0.60
2022-08-25T14:46:19.546Z,0.70
2022-08-25T14:48:49.055Z,0.60
2022-08-25T14:51:17.469Z,0.80
2022-08-25T14:53:46.523Z,0.57
2022-08-25T14:56:14.373Z,0.60
2022-08-25T14:58:51.596Z,0.63
2022-08-25T15:01:29.323Z,0.60
2022-08-25T15:04:01.442Z,0.55
2022-08-25T15:06:29.711Z,0.63
2022-08-25T15:09:11.541Z,0.60
2022-08-25T15:11:42.277Z,0.63
2022-08-25T15:14:11.081Z,0.70
2022-08-25T15:16:42.946Z,0.70
2022-08-25T15:19:14.443Z,0.93
2022-08-25T15:21:43.990Z,0.70
2022-08-25T15:24:17.535Z,0.80
2022-08-25T15:29:23.269Z,0.57
2022-08-25T15:31:51.353Z,0.55
2022-08-25T15:34:19.297Z,0.52
2022-08-25T15:36:47.524Z,0.77
2022-08-25T15:39:18.069Z,0.65
2022-08-25T15:41:48.236Z,0.70
2022-08-25T15:44:17.575Z,0.60
2022-08-25T15:46:47.176Z,0.70
2022-08-25T15:49:23.081Z,0.77
2022-08-25T15:51:51.362Z,0.50
2022-08-25T15:54:20.761Z,0.80
2022-08-25T15:56:48.499Z,0.80
2022-08-25T15:59:16.448Z,0.80
2022-08-25T16:01:44.650Z,0.70
2022-08-25T16:04:14.428Z,3.80
2022-08-25T16:06:42.181Z,2.72
2022-08-25T16:09:10.052Z,1.50
2022-08-25T16:11:39.103Z,1.42
2022-08-25T16:14:07.123Z,1.35
2022-08-25T16:16:34.906Z,1.25
2022-08-25T16:19:04.769Z,1.30
2022-08-25T16:21:35.455Z,1.40
2022-08-25T16:24:07.826Z,1.48
2022-08-25T16:26:37.657Z,1.60
2022-08-25T16:29:15.539Z,1.70
2022-08-25T16:31:44.430Z,1.70
2022-08-25T16:34:12.250Z,1.70
2022-08-25T16:36:40.038Z,1.50
2022-08-25T16:39:09.924Z,1.50
2022-08-25T16:41:37.765Z,1.33
2022-08-25T16:44:11.008Z,1.42
2022-08-25T16:46:41.815Z,1.30
2022-08-25T16:49:13.392Z,1.70
2022-08-25T16:51:41.587Z,1.45
2022-08-25T16:54:29.639Z,1.65
2022-08-25T16:56:57.468Z,1.35
2022-08-25T16:59:26.178Z,1.88
2022-08-25T17:01:55.608Z,1.55
2022-08-25T17:04:29.500Z,1.80
2022-08-25T17:07:00.366Z,1.77
2022-08-25T17:09:29.760Z,1.70
2022-08-25T17:11:57.740Z,1.85
2022-08-25T17:14:25.582Z,1.50
2022-08-25T17:16:54.969Z,1.80
2022-08-25T17:19:24.916Z,1.63
2022-08-25T17:21:54.434Z,1.50
2022-08-25T17:24:29.537Z,1.95
2022-08-25T17:26:59.618Z,2.10
2022-08-25T17:29:29.148Z,1.60
2022-08-25T17:31:57.518Z,1.77
2022-08-25T17:34:27.072Z,1.65
2022-08-25T17:36:55.620Z,1.60
2022-08-25T17:39:24.227Z,1.80
2022-08-25T17:41:52.958Z,1.80
2022-08-25T17:44:20.925Z,1.80
2022-08-25T17:46:49.294Z,1.67
2022-08-25T17:49:17.239Z,1.90
2022-08-25T17:51:46.267Z,1.95
2022-08-25T17:54:14.095Z,1.80
2022-08-25T17:56:42.440Z,1.73
2022-08-25T17:59:11.746Z,1.98
2022-08-25T18:01:41.166Z,1.60
2022-08-25T18:04:17.693Z,1.85
2022-08-25T18:06:47.581Z,1.67
2022-08-25T18:09:15.326Z,1.90
2022-08-25T18:11:43.088Z,2.05
2022-08-25T18:14:11.245Z,2.17
2022-08-25T18:16:39.095Z,1.92
2022-08-25T18:19:09.760Z,1.73
2022-08-25T18:21:38.041Z,2.00
2022-08-25T18:24:07.949Z,2.00
2022-08-25T18:26:35.837Z,2.00
2022-08-25T18:29:03.552Z,1.98
2022-08-25T18:31:31.325Z,2.05
2022-08-25T18:33:59.959Z,2.03
2022-08-25T18:36:28.258Z,1.90
2022-08-25T18:39:13.768Z,2.20
2022-08-25T18:41:44.901Z,2.13
2022-08-25T18:44:15.412Z,2.30
2022-08-25T18:46:43.532Z,2.20
2022-08-25T18:49:15.676Z,2.50
2022-08-25T18:51:44.734Z,2.22
2022-08-25T18:54:23.005Z,2.53
2022-08-25T18:56:53.216Z,2.45
2022-08-25T18:59:23.664Z,2.47
2022-08-25T19:01:52.671Z,2.35
2022-08-25T19:04:20.676Z,2.40
2022-08-25T19:06:56.185Z,2.30
2022-08-25T19:09:23.921Z,2.17
2022-08-25T19:11:54.710Z,2.22
2022-08-25T19:14:23.118Z,2.70
2022-08-25T19:16:54.377Z,2.70
2022-08-25T19:19:22.098Z,2.63
2022-08-25T19:21:50.854Z,3.03
2022-08-25T19:24:19.246Z,2.63
2022-08-25T19:26:50.410Z,3.10
2022-08-25T19:29:24.535Z,3.47
2022-08-25T19:31:52.252Z,3.37
2022-08-25T19:34:25.307Z,3.40
2022-08-25T19:36:56.299Z,3.38
2022-08-25T19:39:24.294Z,3.60
2022-08-25T19:41:52.574Z,3.42
2022-08-25T19:44:21.361Z,3.10
2022-08-25T19:46:51.337Z,2.95
2022-08-25T19:49:22.770Z,2.45
2022-08-25T19:51:52.386Z,2.60
2022-08-25T19:54:24.503Z,2.72
2022-08-25T19:56:55.002Z,2.85
2022-08-25T19:59:24.602Z,3.17
2022-08-25T20:01:53.824Z,3.17
2022-08-25T20:04:24.674Z,3.33
2022-08-25T20:06:52.689Z,2.78
2022-08-25T20:09:39.259Z,2.63
2022-08-25T20:12:10.335Z,2.67
2022-08-25T20:14:38.490Z,2.85
2022-08-25T20:17:14.486Z,2.63
2022-08-25T20:19:52.382Z,2.97
2022-08-25T20:22:24.985Z,3.67
2022-08-25T20:24:56.143Z,3.50
2022-08-25T20:27:29.010Z,3.13
2022-08-25T20:29:56.894Z,3.05
2022-08-25T20:32:26.162Z,3.30
2022-08-25T20:34:56.928Z,3.50
2022-08-25T20:37:25.716Z,3.45
2022-08-25T20:39:53.510Z,3.30
2022-08-25T20:42:21.175Z,3.77
2022-08-25T20:44:48.877Z,3.22
2022-08-25T20:47:20.400Z,3.35
2022-08-25T20:49:50.296Z,3.28
2022-08-25T20:52:18.561Z,3.07
2022-08-25T20:54:46.948Z,3.28
2022-08-25T20:57:17.367Z,3.60
2022-08-25T20:59:45.101Z,3.35
2022-08-25T21:02:13.961Z,3.47
2022-08-25T21:04:48.946Z,3.20
2022-08-25T21:07:19.730Z,3.83
2022-08-25T21:09:48.743Z,3.10
2022-08-25T21:12:16.817Z,3.33
2022-08-25T21:14:44.589Z,3.20
2022-08-25T21:17:13.612Z,3.08
2022-08-25T21:19:41.778Z,3.42
2022-08-25T21:22:10.836Z,3.15
2022-08-25T21:24:40.009Z,3.35
2022-08-25T21:27:08.259Z,3.50
2022-08-25T21:29:36.367Z,3.40
2022-08-25T21:32:04.518Z,3.58
2022-08-25T21:34:32.330Z,3.70
2022-08-25T21:37:00.359Z,3.80
2022-08-25T21:39:32.073Z,3.80
2022-08-25T21:42:01.740Z,3.80
2022-08-25T21:44:30.595Z,3.20
2022-08-25T21:46:58.317Z,3.22
2022-08-25T21:49:26.156Z,3.20
2022-08-25T21:52:04.350Z,3.60
2022-08-25T21:54:32.741Z,2.92
2022-08-25T21:57:04.813Z,4.13
2022-08-25T21:59:34.758Z,3.47
2022-08-25T22:02:03.858Z,3.40
2022-08-25T22:04:32.580Z,3.80
2022-08-25T22:07:00.513Z,3.63
2022-08-25T22:09:29.197Z,3.70
2022-08-25T22:11:57.154Z,3.88
2022-08-25T22:14:30.442Z,3.75
2022-08-25T22:16:58.093Z,3.95
2022-08-25T22:19:26.898Z,3.67
2022-08-25T22:21:54.620Z,3.83
2022-08-25T22:24:22.393Z,3.65
2022-08-25T22:26:50.822Z,3.83
2022-08-25T22:29:23.627Z,3.58
2022-08-25T22:31:59.991Z,4.23
2022-08-25T22:34:32.335Z,5.00
2022-08-25T22:37:00.622Z,5.30
2022-08-25T22:39:29.190Z,5.18
2022-08-25T22:41:56.813Z,5.03
2022-08-25T22:44:25.069Z,6.13
2022-08-25T22:46:54.383Z,5.65
2022-08-25T22:49:22.109Z,5.43
2022-08-25T22:51:49.927Z,5.80
2022-08-25T22:54:18.661Z,6.20
2022-08-25T22:56:46.368Z,6.57
2022-08-25T22:59:15.375Z,7.32
2022-08-25T23:01:44.885Z,10.10
2022-08-25T23:04:14.829Z,13.38
2022-08-25T23:06:42.957Z,16.02
2022-08-25T23:09:11.263Z,22.55
2022-08-25T23:11:39.428Z,25.67
2022-08-25T23:14:10.233Z,29.45
2022-08-25T23:16:38.325Z,29.45
2022-08-25T23:19:06.159Z,31.88
2022-08-25T23:21:53.809Z,34.97
2022-08-25T23:24:29.175Z,36.20
2022-08-25T23:26:58.180Z,37.75
2022-08-25T23:29:25.793Z,39.70
2022-08-25T23:31:53.729Z,43.40
2022-08-25T23:34:21.714Z,43.78
2022-08-25T23:36:51.327Z,43.50
2022-08-25T23:39:18.969Z,45.95
2022-08-25T23:41:49.677Z,47.25
2022-08-25T23:44:17.829Z,48.90
2022-08-25T23:46:47.310Z,49.85
2022-08-25T23:49:18.554Z,48.47
2022-08-25T23:51:48.649Z,49.22
2022-08-25T23:54:20.076Z,49.72
2022-08-25T23:56:51.929Z,51.47
2022-08-25T23:59:24.229Z,51.40
